This is the latest recevied weather packets stored in our database for station/object PP5FMM-13. If no packets are shown the sender has not sent any weather packets the latest 10 day(s).
| Time | Temp. | Humidity | Pressure | Rain* | Wind** | Luminosity | Snow |
|---|---|---|---|---|---|---|---|
| 1777473628 | 24.44° C | 90% | 1014.5 hPa | - | - | - | - |
| 1777473328 | 24.44° C | 90% | 1013.9 hPa | - | - | - | - |
| 1777473028 | 23.89° C | 92% | 1013 hPa | - | - | - | - |
| 1777472728 | 23.89° C | 90% | 1014.6 hPa | - | - | - | - |
| 1777472428 | 24.44° C | 88% | 1015.4 hPa | - | - | - | - |
| 1777472128 | 23.89° C | 90% | 1015.6 hPa | - | - | - | - |
| 1777471828 | 24.44° C | 89% | 1016.1 hPa | - | - | - | - |
| 1777471528 | 24.44° C | 90% | 1016.5 hPa | - | - | - | - |
| 1777471228 | 24.44° C | 90% | 1016.5 hPa | - | - | - | - |
| 1777470928 | 24.44° C | 89% | 1016.2 hPa | - | - | - | - |
| 1777470628 | 24.44° C | 88% | 1016 hPa | - | - | - | - |
| 1777470328 | 24.44° C | 88% | 1015.3 hPa | - | - | - | - |
| 1777470028 | 24.44° C | 88% | 1015.3 hPa | - | - | - | - |
| 1777469728 | 24.44° C | 89% | 1015.5 hPa | - | - | - | - |
| 1777469428 | 23.89° C | 92% | 1013.7 hPa | - | - | - | - |
| 1777469128 | 24.44° C | 87% | 1014.9 hPa | - | - | - | - |
| 1777468828 | 24.44° C | 87% | 1015.6 hPa | - | - | - | - |
| 1777468528 | 24.44° C | 88% | 1015.9 hPa | - | - | - | - |
| 1777468228 | 24.44° C | 88% | 1016 hPa | - | - | - | - |
| 1777467928 | 24.44° C | 88% | 1015.8 hPa | - | - | - | - |
| 1777467628 | 24.44° C | 89% | 1014.6 hPa | - | - | - | - |
| 1777467328 | 24.44° C | 89% | 1014.4 hPa | - | - | - | - |
| 1777467028 | 24.44° C | 88% | 1015.9 hPa | - | - | - | - |
| 1777466728 | 24.44° C | 88% | 1016.6 hPa | - | - | - | - |
| 1777466428 | 24.44° C | 88% | 1016.4 hPa | - | - | - | - |
* Rain since midnight (hover to see other rain measurements)
** Current wind speed in m/s (hover to see current wind gust speed)